Abilene, Texas
Current Conditions -  °F | °C
As of 7:52 AM on Friday 28 Nov 2014 (Local Time) from KABI Reporting Station
Clear Clear  
Wind Chill: 43°   Ceiling: Unl
Heat Index: 49°   Visibility: 10mi
Dew Point: 41°   Wind: 17mph
Humidity: 74%   Direction: 200°SSW
Pressure: 30.18"   Gusts: 31mph
Location:  32.45°N, 99.74°W
Report Text: KABI 281352Z 20015G27KT 10SM CLR 09/05 A3018 RMK AO2 PK WND 20027/1345 SLP214 T00940050
Loading
Personal Weather Stations






























Interactive Weather Map New forecast layout! Learn more

10-Day Weather Forecast

Advertisements
Track Severe Weather on mobile